This is the latest recevied weather packets stored in our database for station/object OE-11373. If no packets are shown the sender has not sent any weather packets the latest 10 day(s).
| Time | Temp. | Humidity | Pressure | Rain* | Wind** | Luminosity | Snow |
|---|---|---|---|---|---|---|---|
| 1787904313 | 26.67° C | 38% | 851.2 hPa | - | - | - | - |
| 1787903713 | 26.11° C | 38% | 851.1 hPa | - | - | - | - |
| 1787902885 | 25.56° C | 38% | 851.1 hPa | - | - | - | - |
| 1787902513 | 25.56° C | 38% | 851 hPa | - | - | - | - |
| 1787901913 | 25.56° C | 38% | 851.1 hPa | - | - | - | - |
| 1787901085 | 25° C | 41% | 850.9 hPa | - | - | - | - |
| 1787900712 | 25.56° C | 39% | 851.1 hPa | - | - | - | - |
| 1787900113 | 26.11° C | 35% | 851.4 hPa | - | - | - | - |
| 1787899285 | 25.56° C | 38% | 851.3 hPa | - | - | - | - |
| 1787898912 | 27.22° C | 30% | 851.6 hPa | - | - | - | - |
| 1787898313 | 26.11° C | 35% | 851.5 hPa | - | - | - | - |
| 1787897485 | 27.22° C | 31% | 851.6 hPa | - | - | - | - |
| 1787897112 | 26.67° C | 31% | 851.5 hPa | - | - | - | - |
| 1787896512 | 26.11° C | 35% | 851.4 hPa | - | - | - | - |
| 1787895685 | 26.11° C | 34% | 851.4 hPa | - | - | - | - |
| 1787895313 | 26.67° C | 32% | 851.4 hPa | - | - | - | - |
| 1787894713 | 25° C | 37% | 851.3 hPa | - | - | - | - |
| 1787893886 | 25° C | 38% | 851.2 hPa | - | - | - | - |
| 1787893513 | 25° C | 38% | 851.2 hPa | - | - | - | - |
| 1787892913 | 24.44° C | 41% | 851 hPa | - | - | - | - |
| 1787892085 | 23.89° C | 44% | 850.9 hPa | - | - | - | - |
| 1787891712 | 24.44° C | 41% | 851 hPa | - | - | - | - |
| 1787891113 | 25.56° C | 36% | 851.1 hPa | - | - | - | - |
| 1787890285 | 25° C | 38% | 851.3 hPa | - | - | - | - |
| 1787889912 | 24.44° C | 40% | 851.3 hPa | - | - | - | - |
* Rain since midnight (hover to see other rain measurements)
** Current wind speed in m/s (hover to see current wind gust speed)